Time;durP1;ratioP1;P1;durP2;ratioP2;P2;SDS_P1;SDS_P2;PMS_P1;PMS_P2;Temp;Humidity;BMP_temperature;BMP_pressure;BME280_temperature;BME280_humidity;BME280_pressure;Samples;Min_cycle;Max_cycle;Signal;HPM_P1;HPM_P2
2023/07/22 00:02:10;;;;;;;21.38;10.30;;;;;;;-144.73;100.00;54436.44;4911744;28;20052;-72
2023/07/22 00:04:36;;;;;;;16.52;9.50;;;;;;;-144.73;100.00;54374.84;4954227;28;20089;-72
2023/07/22 00:07:01;;;;;;;18.38;10.05;;;;;;;-144.73;100.00;54366.66;4960247;28;20046;-72
2023/07/22 00:09:27;;;;;;;20.65;10.60;;;;;;;-144.73;100.00;54428.22;4985024;28;20616;-72
2023/07/22 00:11:52;;;;;;;22.73;9.85;;;;;;;-144.73;100.00;54399.50;4927392;28;20031;-72
2023/07/22 00:14:17;;;;;;;22.15;9.73;;;;;;;-144.73;100.00;54337.91;4945895;28;20036;-72
2023/07/22 00:16:42;;;;;;;19.90;11.43;;;;;;;-144.73;100.00;54411.81;4918501;28;20020;-72
2023/07/22 00:19:08;;;;;;;24.73;10.65;;;;;;;-144.73;100.00;54407.69;4911720;28;20051;-72
2023/07/22 00:21:34;;;;;;;17.60;10.48;;;;;;;-144.73;100.00;54407.69;4911412;29;20038;-73
2023/07/22 00:24:00;;;;;;;18.65;10.48;;;;;;;-144.73;100.00;54407.69;4913100;28;20039;-73
2023/07/22 00:26:26;;;;;;;21.83;10.25;;;;;;;-144.73;100.00;54411.81;4910984;28;20112;-73
2023/07/22 00:28:51;;;;;;;24.92;10.80;;;;;;;-144.73;100.00;54354.34;4910806;29;20079;-72
2023/07/22 00:31:16;;;;;;;23.55;10.15;;;;;;;-144.73;100.00;54411.81;4918076;29;20027;-73
2023/07/22 00:33:42;;;;;;;18.00;10.48;;;;;;;-144.73;100.00;54409.75;4919211;28;20058;-73
2023/07/22 00:36:07;;;;;;;21.50;11.02;;;;;;;-144.73;100.00;54381.00;4916675;28;20043;-72
2023/07/22 00:38:33;;;;;;;24.23;11.20;;;;;;;-144.73;100.00;54354.34;4921888;28;20040;-73
2023/07/22 00:40:58;;;;;;;22.98;10.88;;;;;;;-144.73;100.00;54387.19;4922908;28;20039;-73
2023/07/22 00:43:25;;;;;;;18.83;10.73;;;;;;;-144.73;100.00;54415.91;4916754;28;20133;-73
2023/07/22 00:45:51;;;;;;;17.88;10.10;;;;;;;-144.73;100.00;54366.66;4921946;28;20119;-74
2023/07/22 00:48:17;;;;;;;18.38;11.00;;;;;;;-144.73;100.00;54366.66;4924319;28;20119;-73
2023/07/22 00:50:43;;;;;;;22.15;10.95;;;;;;;-144.73;100.00;54424.13;4913209;28;20162;-72
2023/07/22 00:53:09;;;;;;;23.10;12.02;;;;;;;-144.73;100.00;54407.69;4918471;28;20032;-72
2023/07/22 00:55:35;;;;;;;21.52;11.07;;;;;;;-144.73;100.00;54424.13;4918802;28;20035;-73
2023/07/22 00:58:01;;;;;;;29.10;12.13;;;;;;;-144.73;100.00;54366.66;4918315;28;20033;-73
2023/07/22 01:00:26;;;;;;;22.13;11.82;;;;;;;-144.73;100.00;54354.34;4910968;29;20420;-73
2023/07/22 01:02:52;;;;;;;27.52;12.20;;;;;;;-144.73;100.00;54444.66;4918953;28;20044;-72
2023/07/22 01:05:17;;;;;;;24.05;10.82;;;;;;;-144.73;100.00;54424.13;4979951;28;20037;-73
2023/07/22 01:07:43;;;;;;;28.25;12.70;;;;;;;-144.73;100.00;54422.06;4915163;28;20036;-72
2023/07/22 01:10:09;;;;;;;23.08;11.40;;;;;;;-144.73;100.00;54424.13;4941032;28;20018;-71
2023/07/22 01:12:35;;;;;;;28.38;12.98;;;;;;;-144.73;100.00;54407.69;4929447;28;20411;-73
2023/07/22 01:15:03;;;;;;;24.33;12.10;;;;;;;-144.73;100.00;54393.34;5027860;28;20026;-73
2023/07/22 01:17:29;;;;;;;23.45;11.55;;;;;;;-144.73;100.00;54393.34;4947102;28;20020;-73
2023/07/22 01:19:55;;;;;;;24.48;12.68;;;;;;;-144.73;100.00;54432.31;4910384;28;20020;-72
2023/07/22 01:22:21;;;;;;;25.88;12.27;;;;;;;-144.73;100.00;54411.81;4918096;28;20051;-73
2023/07/22 01:24:47;;;;;;;33.08;12.25;;;;;;;-144.73;100.00;54407.69;5024989;28;20066;-72
2023/07/22 01:27:15;;;;;;;23.83;11.40;;;;;;;-144.73;100.00;54411.81;4954208;28;20059;-72
2023/07/22 01:29:40;;;;;;;27.00;10.98;;;;;;;-144.73;100.00;54370.75;4968180;28;20093;-72
2023/07/22 01:32:06;;;;;;;21.42;11.20;;;;;;;-144.73;100.00;54370.75;4945757;28;20062;-73
2023/07/22 01:34:31;;;;;;;27.08;10.98;;;;;;;-144.73;100.00;54444.66;5023891;28;20032;-72
2023/07/22 01:36:57;;;;;;;20.88;10.25;;;;;;;-144.73;100.00;54420.00;4997186;28;20019;-73
2023/07/22 01:39:22;;;;;;;24.02;10.85;;;;;;;-144.73;100.00;54407.69;4916977;28;20122;-73
2023/07/22 01:41:48;;;;;;;23.85;9.23;;;;;;;-144.73;100.00;54415.91;4932139;29;20031;-73
2023/07/22 01:44:14;;;;;;;28.75;12.02;;;;;;;-144.73;100.00;54378.97;4917801;28;20082;-73
2023/07/22 01:46:40;;;;;;;25.80;11.30;;;;;;;-144.73;100.00;54407.69;4913783;29;20059;-73
2023/07/22 01:49:10;;;;;;;22.73;10.52;;;;;;;-144.73;100.00;54415.91;4917834;29;20032;-73
2023/07/22 01:51:37;;;;;;;28.42;11.60;;;;;;;-144.73;100.00;54436.44;4921921;28;20032;-72
2023/07/22 01:54:03;;;;;;;28.55;11.20;;;;;;;-144.73;100.00;54420.00;4959905;28;20029;-72
2023/07/22 01:56:28;;;;;;;19.95;10.68;;;;;;;-144.73;100.00;54393.34;4913902;28;20032;-73
2023/07/22 01:58:54;;;;;;;26.40;10.52;;;;;;;-144.73;100.00;54417.97;4912992;28;20099;-72
2023/07/22 02:01:19;;;;;;;32.97;11.70;;;;;;;-144.73;100.00;54395.38;4921063;28;20082;-73
2023/07/22 02:03:46;;;;;;;25.83;10.23;;;;;;;-144.73;100.00;54395.38;4930385;29;20127;-72
2023/07/22 02:06:11;;;;;;;27.67;11.30;;;;;;;-144.73;100.00;54420.00;4932762;28;20024;-72
2023/07/22 02:08:37;;;;;;;22.27;9.95;;;;;;;-144.73;100.00;54391.28;4908704;28;20434;-72
2023/07/22 02:11:04;;;;;;;31.92;10.77;;;;;;;-144.73;100.00;54415.91;4919796;28;20040;-73
2023/07/22 02:13:30;;;;;;;24.80;10.23;;;;;;;-144.73;100.00;54407.69;4928699;28;20040;-73
2023/07/22 02:15:56;;;;;;;19.55;10.10;;;;;;;-144.73;100.00;54411.81;4924399;28;20095;-73
2023/07/22 02:18:21;;;;;;;28.17;10.40;;;;;;;-144.73;100.00;54475.44;4924072;28;20040;-74
2023/07/22 02:20:47;;;;;;;24.35;10.32;;;;;;;-144.73;100.00;54448.75;4915831;28;20094;-73
2023/07/22 02:23:12;;;;;;;27.13;10.32;;;;;;;-144.73;100.00;54428.22;4918728;28;20079;-73
2023/07/22 02:25:38;;;;;;;22.85;11.35;;;;;;;-144.73;100.00;54362.53;4913336;29;20468;-73
2023/07/22 02:28:03;;;;;;;32.75;11.18;;;;;;;-144.73;100.00;54420.00;4924174;29;20395;-73
2023/07/22 02:30:29;;;;;;;22.77;10.75;;;;;;;-144.73;100.00;54428.22;4917450;28;20028;-73
2023/07/22 02:32:54;;;;;;;28.92;10.38;;;;;;;-144.73;100.00;54407.69;4928159;29;20060;-73
2023/07/22 02:35:19;;;;;;;25.00;10.52;;;;;;;-144.73;100.00;54420.00;4918941;29;20024;-73
2023/07/22 02:37:44;;;;;;;32.75;10.75;;;;;;;-144.73;100.00;54428.22;4921821;28;20058;-73
2023/07/22 02:40:13;;;;;;;23.90;10.88;;;;;;;-144.73;100.00;54461.06;4920783;28;20027;-73
2023/07/22 02:42:39;;;;;;;27.40;11.95;;;;;;;-144.73;100.00;54450.81;4928858;29;20130;-74
2023/07/22 02:45:05;;;;;;;25.40;12.20;;;;;;;-144.73;100.00;54409.75;4930915;28;20042;-73
2023/07/22 02:47:32;;;;;;;27.63;11.45;;;;;;;-144.73;100.00;54434.38;4916599;28;20040;-72
2023/07/22 02:49:57;;;;;;;27.90;10.98;;;;;;;-144.73;100.00;54426.16;4924080;29;20023;-73
2023/07/22 02:52:23;;;;;;;33.05;12.80;;;;;;;-144.73;100.00;54407.69;4916936;28;20112;-73
2023/07/22 02:55:10;;;;;;;26.17;12.57;;;;;;;-144.73;100.00;54424.13;4914204;29;20052;-73
2023/07/22 02:57:36;;;;;;;30.35;12.07;;;;;;;-144.73;100.00;54407.69;4994740;28;20029;-73
2023/07/22 03:00:07;;;;;;;26.98;12.02;;;;;;;-144.73;100.00;54387.19;5012223;28;20034;-73
2023/07/22 03:02:33;;;;;;;27.77;11.17;;;;;;;-144.73;100.00;54477.47;5011670;28;20044;-73
2023/07/22 03:04:59;;;;;;;39.55;14.02;;;;;;;-144.73;100.00;54415.91;4912824;28;20032;-73
2023/07/22 03:07:26;;;;;;;28.77;12.63;;;;;;;-144.73;100.00;54428.22;4926554;28;20039;-72
2023/07/22 03:09:51;;;;;;;26.05;11.77;;;;;;;-144.73;100.00;54415.91;4913732;28;20427;-74
2023/07/22 03:12:17;;;;;;;25.60;12.00;;;;;;;-144.73;100.00;54432.31;4917408;28;20073;-73
2023/07/22 03:14:43;;;;;;;32.33;12.43;;;;;;;-144.73;100.00;54407.69;4931667;28;20027;-73
2023/07/22 03:17:08;;;;;;;30.35;12.40;;;;;;;-144.73;100.00;54368.69;4912402;29;20110;-73
2023/07/22 03:19:33;;;;;;;22.52;11.93;;;;;;;-144.73;100.00;54448.75;4911922;28;20086;-72
2023/07/22 03:21:59;;;;;;;33.03;12.30;;;;;;;-144.73;100.00;54411.81;4912537;28;20483;-73
2023/07/22 03:24:25;;;;;;;28.35;11.77;;;;;;;-144.73;100.00;54413.84;5017283;28;20032;-72
2023/07/22 03:26:50;;;;;;;25.33;12.68;;;;;;;-144.73;100.00;54436.44;4913582;28;20028;-73
2023/07/22 03:29:16;;;;;;;31.38;11.75;;;;;;;-144.73;100.00;54378.97;4924109;28;20043;-74
2023/07/22 03:31:41;;;;;;;29.60;12.55;;;;;;;-144.73;100.00;54411.81;4922682;28;20020;-72
2023/07/22 03:34:07;;;;;;;28.98;12.10;;;;;;;-144.73;100.00;54389.22;4915313;28;20063;-74
2023/07/22 03:36:35;;;;;;;28.42;12.63;;;;;;;-144.73;100.00;54432.31;4931556;28;20024;-74
2023/07/22 03:39:01;;;;;;;26.15;13.43;;;;;;;-144.73;100.00;54387.19;4927705;28;20036;-74
2023/07/22 03:41:26;;;;;;;33.95;12.40;;;;;;;-144.73;100.00;54426.16;4912224;29;20031;-74
2023/07/22 03:43:52;;;;;;;31.77;13.40;;;;;;;-144.73;100.00;54391.28;4928975;28;20521;-74
2023/07/22 03:46:17;;;;;;;31.90;12.35;;;;;;;-144.73;100.00;54395.38;4928939;28;20020;-74
2023/07/22 03:48:42;;;;;;;28.25;12.13;;;;;;;-144.73;100.00;54407.69;4922011;28;20132;-75
2023/07/22 03:51:08;;;;;;;28.23;14.00;;;;;;;-144.73;100.00;54432.31;4930764;28;20054;-72
2023/07/22 03:53:33;;;;;;;23.58;12.70;;;;;;;-144.73;100.00;54407.69;4998227;28;20403;-72
2023/07/22 03:55:59;;;;;;;32.88;13.00;;;;;;;-144.73;100.00;54452.84;4914069;28;20028;-73
2023/07/22 03:58:24;;;;;;;34.63;13.55;;;;;;;-144.73;100.00;54411.81;4924359;28;20025;-73
2023/07/22 04:00:50;;;;;;;30.92;13.98;;;;;;;-144.73;100.00;54415.91;4928460;28;20031;-73
2023/07/22 04:03:15;;;;;;;23.30;11.75;;;;;;;-144.73;100.00;54459.00;4917874;28;20094;-74
2023/07/22 04:05:41;;;;;;;35.13;13.48;;;;;;;-144.73;100.00;54446.69;4954307;28;20027;-74
2023/07/22 04:08:06;;;;;;;28.83;12.85;;;;;;;-144.73;100.00;54415.91;5008899;28;20040;-75
2023/07/22 04:10:31;;;;;;;34.22;12.10;;;;;;;-144.73;100.00;54391.28;4952063;28;20105;-75
2023/07/22 04:12:57;;;;;;;29.98;12.75;;;;;;;-144.73;100.00;54407.69;5018455;28;20040;-75
2023/07/22 04:15:23;;;;;;;28.17;11.35;;;;;;;-144.73;100.00;54420.00;4980829;28;20107;-75
2023/07/22 04:17:48;;;;;;;23.60;11.82;;;;;;;-144.73;100.00;54456.97;4917888;28;20039;-75
2023/07/22 04:20:14;;;;;;;27.88;12.25;;;;;;;-144.73;100.00;54387.19;4910374;28;20028;-75
2023/07/22 04:22:39;;;;;;;27.35;11.98;;;;;;;-144.73;100.00;54411.81;4909300;28;20044;-75
2023/07/22 04:25:06;;;;;;;31.50;11.77;;;;;;;-144.73;100.00;54420.00;4915986;29;20491;-74
2023/07/22 04:27:31;;;;;;;29.65;11.52;;;;;;;-144.73;100.00;54424.13;4916734;28;20039;-74
2023/07/22 04:29:56;;;;;;;25.42;12.38;;;;;;;-144.73;100.00;54409.75;4911319;28;20102;-74
2023/07/22 04:32:21;;;;;;;32.60;12.18;;;;;;;-144.73;100.00;54440.53;4910360;28;20020;-74
2023/07/22 04:34:47;;;;;;;30.20;12.05;;;;;;;-144.73;100.00;54452.84;4908827;29;20036;-74
2023/07/22 04:37:12;;;;;;;40.13;12.77;;;;;;;-144.73;100.00;54459.00;4914386;28;20035;-75
2023/07/22 04:39:38;;;;;;;32.85;13.00;;;;;;;-144.73;100.00;54407.69;4978778;28;20021;-75
2023/07/22 04:42:04;;;;;;;21.55;10.57;;;;;;;-144.73;100.00;54456.97;4929266;28;20036;-74
2023/07/22 04:44:29;;;;;;;23.63;11.55;;;;;;;-144.73;100.00;54424.13;4988895;28;20084;-74
2023/07/22 04:46:55;;;;;;;26.35;10.77;;;;;;;-144.73;100.00;54485.69;4948590;28;20072;-74
2023/07/22 04:49:21;;;;;;;30.92;11.43;;;;;;;-144.73;100.00;54461.06;4963149;28;20045;-74
2023/07/22 04:51:47;;;;;;;26.88;10.50;;;;;;;-144.73;100.00;54452.84;4933324;28;20047;-75
2023/07/22 04:54:13;;;;;;;26.80;10.35;;;;;;;-144.73;100.00;54434.38;4940797;28;20038;-75
2023/07/22 04:56:38;;;;;;;35.05;12.27;;;;;;;-144.73;100.00;54395.38;4959812;28;20035;-75
2023/07/22 04:59:04;;;;;;;24.33;10.82;;;;;;;-144.73;100.00;54444.66;4937901;28;20043;-75
2023/07/22 05:01:29;;;;;;;24.50;11.43;;;;;;;-144.73;100.00;54428.22;4975461;28;20543;-75
2023/07/22 05:03:55;;;;;;;23.10;11.30;;;;;;;-144.73;100.00;54415.91;4918223;28;20036;-75
2023/07/22 05:06:21;;;;;;;24.83;12.38;;;;;;;-144.73;100.00;54465.16;4981627;28;20047;-75
2023/07/22 05:08:46;;;;;;;29.95;12.18;;;;;;;-144.73;100.00;54420.00;4959935;28;20064;-74
2023/07/22 05:11:11;;;;;;;29.15;12.10;;;;;;;-144.73;100.00;54428.22;4961566;28;20020;-75
2023/07/22 05:13:37;;;;;;;35.78;11.95;;;;;;;-144.73;100.00;54407.69;4931126;28;20407;-74
2023/07/22 05:16:03;;;;;;;28.05;11.77;;;;;;;-144.73;100.00;54440.53;4955163;28;20030;-74
2023/07/22 05:18:28;;;;;;;24.10;10.55;;;;;;;-144.73;100.00;54411.81;4986382;28;20035;-75
2023/07/22 05:20:53;;;;;;;25.42;10.80;;;;;;;-144.73;100.00;54461.06;4957088;28;20057;-74
2023/07/22 05:23:19;;;;;;;24.48;10.93;;;;;;;-144.73;100.00;54407.69;4958979;28;20063;-76
2023/07/22 05:25:51;;;;;;;22.35;11.15;;;;;;;-144.73;100.00;54446.69;4924485;28;20527;-75
2023/07/22 05:28:16;;;;;;;32.83;10.57;;;;;;;-144.73;100.00;54461.06;4933410;28;20033;-75
2023/07/22 05:30:42;;;;;;;27.95;11.20;;;;;;;-144.73;100.00;54424.13;4955371;28;20022;-75
2023/07/22 05:33:07;;;;;;;17.65;8.75;;;;;;;-144.73;100.00;54424.13;4956538;28;20050;-74
2023/07/22 05:35:32;;;;;;;20.95;9.25;;;;;;;-144.73;100.00;54413.84;4957098;28;20057;-75
2023/07/22 05:37:58;;;;;;;18.85;9.57;;;;;;;-144.73;100.00;54397.44;4942507;28;20036;-75
2023/07/22 05:40:23;;;;;;;20.42;8.90;;;;;;;-144.73;100.00;54399.50;4913445;28;20031;-74
2023/07/22 05:42:48;;;;;;;23.63;9.32;;;;;;;-144.73;100.00;54395.38;4913471;28;20122;-74
2023/07/22 05:45:16;;;;;;;30.85;9.20;;;;;;;-144.73;100.00;54424.13;4928300;28;20403;-74
2023/07/22 05:47:41;;;;;;;13.88;8.02;;;;;;;-144.73;100.00;54448.75;4913297;28;20094;-74
2023/07/22 05:50:08;;;;;;;18.73;9.10;;;;;;;-144.73;100.00;54465.16;4959049;28;20447;-74
2023/07/22 05:52:34;;;;;;;17.25;8.77;;;;;;;-144.73;100.00;54411.81;5025993;28;20037;-74
2023/07/22 05:54:59;;;;;;;20.58;8.57;;;;;;;-144.73;100.00;54436.44;5010718;28;20098;-75
2023/07/22 05:57:24;;;;;;;19.85;9.32;;;;;;;-144.73;100.00;54411.81;4950319;28;20094;-73
2023/07/22 05:59:50;;;;;;;19.40;7.80;;;;;;;-144.73;100.00;54440.53;4918988;29;20035;-75
2023/07/22 06:02:18;;;;;;;23.75;8.32;;;;;;;-144.73;100.00;54422.06;4916594;28;20023;-74
2023/07/22 06:04:43;;;;;;;20.17;7.72;;;;;;;-144.73;100.00;54407.69;4913442;28;20131;-74
2023/07/22 06:07:08;;;;;;;20.20;7.80;;;;;;;-144.73;100.00;54446.69;4923457;28;20103;-75
2023/07/22 06:09:35;;;;;;;13.65;7.35;;;;;;;-144.73;100.00;54422.06;4967577;28;20030;-74
2023/07/22 06:12:00;;;;;;;17.38;7.65;;;;;;;-144.73;100.00;54442.59;4937781;28;20021;-74
2023/07/22 06:14:26;;;;;;;19.90;7.35;;;;;;;-144.73;100.00;54428.22;4933587;28;20495;-75
2023/07/22 06:16:51;;;;;;;25.42;8.20;;;;;;;-144.73;100.00;54448.75;4951879;28;20022;-74
2023/07/22 06:19:16;;;;;;;16.60;7.03;;;;;;;-144.73;100.00;54424.13;4990468;28;20043;-74
2023/07/22 06:21:42;;;;;;;26.17;7.50;;;;;;;-144.73;100.00;54436.44;4927786;28;20033;-74
2023/07/22 06:24:07;;;;;;;17.52;6.75;;;;;;;-144.73;100.00;54452.84;5019193;28;20028;-74
2023/07/22 06:26:33;;;;;;;16.63;6.97;;;;;;;-144.73;100.00;54432.31;4969745;28;20043;-74
2023/07/22 06:28:58;;;;;;;20.60;6.70;;;;;;;-144.73;100.00;54444.66;4931597;28;20034;-74
2023/07/22 06:31:23;;;;;;;15.07;5.60;;;;;;;-144.73;100.00;54428.22;4937107;28;20018;-74
2023/07/22 06:33:49;;;;;;;13.57;5.72;;;;;;;-144.73;100.00;54446.69;4925012;28;20127;-74
2023/07/22 06:36:16;;;;;;;13.30;5.07;;;;;;;-144.73;100.00;54424.13;4977609;28;20119;-74
2023/07/22 06:38:41;;;;;;;13.65;5.07;;;;;;;-144.73;100.00;54456.97;4921094;28;20040;-75
2023/07/22 06:41:07;;;;;;;11.50;4.80;;;;;;;-144.73;100.00;54436.44;4916159;28;20117;-74
2023/07/22 06:43:32;;;;;;;9.68;4.70;;;;;;;-144.73;100.00;54395.38;4911718;28;20060;-74
2023/07/22 06:45:58;;;;;;;8.95;4.22;;;;;;;-144.73;100.00;54473.38;4914589;28;20116;-74
2023/07/22 06:48:23;;;;;;;8.75;4.28;;;;;;;-144.73;100.00;54444.66;4956605;28;20035;-74
2023/07/22 06:50:49;;;;;;;17.58;4.95;;;;;;;-144.73;100.00;54391.28;4966638;28;20113;-74
2023/07/22 06:53:15;;;;;;;9.35;4.13;;;;;;;-144.73;100.00;54469.28;4919583;28;20032;-74
2023/07/22 06:55:48;;;;;;;10.43;3.38;;;;;;;-144.73;100.00;54442.59;4936560;28;20127;-75
2023/07/22 06:58:13;;;;;;;11.10;3.78;;;;;;;-144.73;100.00;54428.22;4958925;28;20052;-74
2023/07/22 07:00:39;;;;;;;13.25;4.05;;;;;;;-144.73;100.00;54415.91;4994886;28;20477;-74
2023/07/22 07:03:04;;;;;;;14.48;3.80;;;;;;;-144.73;100.00;54473.38;4957538;28;20227;-74
2023/07/22 07:05:29;;;;;;;8.02;3.63;;;;;;;-144.73;100.00;54442.59;5011142;28;20399;-75
2023/07/22 07:07:55;;;;;;;8.32;3.47;;;;;;;-144.73;100.00;54430.28;4973886;28;20100;-74
2023/07/22 07:10:20;;;;;;;7.25;3.65;;;;;;;-144.73;100.00;54450.81;4965782;28;20028;-75
2023/07/22 07:12:45;;;;;;;4.47;2.30;;;;;;;-144.73;100.00;54440.53;4942954;28;20479;-74
2023/07/22 07:15:11;;;;;;;10.13;3.10;;;;;;;-144.73;100.00;54428.22;4934994;28;20024;-74
2023/07/22 07:17:36;;;;;;;10.05;2.83;;;;;;;-144.73;100.00;54436.44;4941548;28;20592;-74
2023/07/22 07:20:02;;;;;;;6.63;2.25;;;;;;;-144.73;100.00;54391.28;5011074;28;20059;-74
2023/07/22 07:22:27;;;;;;;8.20;3.33;;;;;;;-144.73;100.00;54432.31;4922117;28;20024;-74
2023/07/22 07:24:53;;;;;;;7.30;3.17;;;;;;;-144.73;100.00;54411.81;4944657;28;20052;-74
2023/07/22 07:27:18;;;;;;;7.07;3.35;;;;;;;-144.73;100.00;54420.00;4943881;28;20059;-74
2023/07/22 07:29:43;;;;;;;12.32;3.38;;;;;;;-144.73;100.00;54452.84;4950207;28;20502;-75
2023/07/22 07:32:08;;;;;;;12.20;2.45;;;;;;;-144.73;100.00;54444.66;4920275;28;20059;-75
2023/07/22 07:34:34;;;;;;;6.85;2.35;;;;;;;-144.73;100.00;54378.97;4925382;28;20040;-74
2023/07/22 07:36:59;;;;;;;5.32;2.08;;;;;;;-144.73;100.00;54452.84;4985173;28;20026;-74
2023/07/22 07:39:25;;;;;;;6.07;2.10;;;;;;;-144.73;100.00;54448.75;4951815;28;20040;-74
2023/07/22 07:41:50;;;;;;;7.53;2.40;;;;;;;-144.73;100.00;54346.13;4965411;28;20047;-74
2023/07/22 07:44:16;;;;;;;8.40;2.30;;;;;;;-144.73;100.00;54362.53;4979750;28;20029;-73
2023/07/22 07:46:41;;;;;;;5.63;2.53;;;;;;;-144.73;100.00;54436.44;5008794;28;20024;-73
2023/07/22 07:49:07;;;;;;;11.32;2.50;;;;;;;-144.73;100.00;54389.22;4938109;28;20040;-71
2023/07/22 07:51:32;;;;;;;6.93;3.22;;;;;;;-144.73;100.00;54411.81;4932158;28;20025;-69
2023/07/22 07:53:59;;;;;;;8.88;2.95;;;;;;;-144.73;100.00;54397.44;5014352;28;20026;-70
2023/07/22 07:56:25;;;;;;;3.90;2.72;;;;;;;-144.73;100.00;54366.66;4923556;28;20029;-70
2023/07/22 07:58:52;;;;;;;8.13;3.80;;;;;;;-144.73;100.00;54407.69;4923248;28;20048;-70
2023/07/22 08:01:17;;;;;;;11.80;2.60;;;;;;;-144.73;100.00;54374.84;4924309;28;20028;-70
2023/07/22 08:03:44;;;;;;;6.68;2.80;;;;;;;-144.73;100.00;54387.19;4935923;28;20047;-70
2023/07/22 08:06:10;;;;;;;6.15;2.78;;;;;;;-144.73;100.00;54420.00;5011971;28;20479;-70
2023/07/22 08:08:37;;;;;;;8.68;2.53;;;;;;;-144.73;100.00;54409.75;4923475;28;20040;-70
2023/07/22 08:11:04;;;;;;;5.65;2.33;;;;;;;-144.73;100.00;54407.69;4929868;28;20042;-70
2023/07/22 08:13:31;;;;;;;9.05;2.35;;;;;;;-144.73;100.00;54407.69;5008426;28;20099;-70
2023/07/22 08:16:08;;;;;;;4.03;2.00;;;;;;;-144.73;100.00;54387.19;4926316;28;20032;-70
2023/07/22 08:18:34;;;;;;;5.95;1.90;;;;;;;-144.73;100.00;54383.06;4922825;28;20035;-70
2023/07/22 08:21:02;;;;;;;4.03;2.28;;;;;;;-144.73;100.00;54399.50;4939410;28;20026;-75
2023/07/22 08:23:28;;;;;;;6.53;2.00;;;;;;;-144.73;100.00;54391.28;4917613;28;20032;-73
2023/07/22 08:25:53;;;;;;;3.78;1.90;;;;;;;-144.73;97.95;54432.31;4922776;28;20037;-74
2023/07/22 08:28:18;;;;;;;4.78;1.80;;;;;;;-144.73;100.00;54432.31;4924654;28;20105;-75
2023/07/22 08:30:44;;;;;;;7.68;2.20;;;;;;;-144.73;100.00;54415.91;4919988;28;20038;-74
2023/07/22 08:33:13;;;;;;;12.32;2.85;;;;;;;-144.73;100.00;54415.91;4927405;28;20040;-74
2023/07/22 08:35:39;;;;;;;18.52;3.50;;;;;;;-144.73;100.00;54350.22;4936085;28;20082;-74
2023/07/22 08:38:05;;;;;;;11.57;3.15;;;;;;;-144.73;100.00;54333.81;4920731;28;20395;-76
2023/07/22 08:40:38;;;;;;;4.47;2.30;;;;;;;-144.73;96.72;54370.75;4923441;28;20081;-75
2023/07/22 08:43:06;;;;;;;4.70;2.03;;;;;;;-144.73;100.00;54411.81;4958606;28;20051;-75
2023/07/22 08:45:36;;;;;;;4.13;1.90;;;;;;;-144.73;97.88;54356.38;4922725;28;20044;-75
2023/07/22 08:48:07;;;;;;;4.32;2.10;;;;;;;-144.73;90.24;54424.13;4926241;28;20322;-75
2023/07/22 08:50:39;;;;;;;;;;;;;;;-144.73;85.08;54395.38;4923079;28;20066;-75
2023/07/22 08:53:05;;;;;;;3.72;1.40;;;;;;;-144.73;79.33;54366.66;4923656;28;19919;-75
2023/07/22 08:55:30;;;;;;;3.15;1.30;;;;;;;-144.73;79.50;54374.84;4923157;28;20037;-73
2023/07/22 08:57:57;;;;;;;3.97;1.23;;;;;;;-144.73;77.96;54399.50;5009007;28;20497;-73
2023/07/22 09:00:23;;;;;;;3.25;1.67;;;;;;;-144.73;80.12;54407.69;4924104;28;20120;-75
2023/07/22 09:02:48;;;;;;;1.98;1.25;;;;;;;-144.73;76.04;54415.91;4925887;28;20119;-74
2023/07/22 09:05:13;;;;;;;4.28;1.50;;;;;;;-144.73;72.91;54362.53;4924108;28;20044;-74
2023/07/22 09:07:40;;;;;;;5.75;1.50;;;;;;;-144.73;71.47;54387.19;4921421;28;20036;-74
2023/07/22 09:10:08;;;;;;;4.72;1.52;;;;;;;-144.73;69.25;54358.44;4921009;28;20059;-74
2023/07/22 09:12:39;;;;;;;5.63;1.60;;;;;;;-144.73;68.82;54374.84;4921037;28;20032;-74
2023/07/22 09:15:09;;;;;;;5.70;1.40;;;;;;;-144.73;67.82;54342.03;4922190;28;20516;-74
2023/07/22 09:17:35;;;;;;;6.25;1.50;;;;;;;-144.73;68.40;54366.66;4927406;28;20095;-74
2023/07/22 09:20:03;;;;;;;3.95;1.30;;;;;;;-144.73;67.73;54354.34;4924825;28;20042;-75
2023/07/22 09:22:28;;;;;;;3.10;1.40;;;;;;;-144.73;69.03;54399.50;4920379;28;20035;-75
2023/07/22 09:25:12;;;;;;;6.60;1.33;;;;;;;-144.73;67.18;54378.97;4924952;28;20042;-74
2023/07/22 09:27:42;;;;;;;7.05;1.17;;;;;;;-144.73;67.61;54376.91;4949768;28;20105;-75
2023/07/22 09:30:29;;;;;;;2.85;1.52;;;;;;;-144.73;65.22;54407.69;4922223;28;20036;-75
2023/07/22 09:33:02;;;;;;;3.53;1.63;;;;;;;-144.73;66.86;54309.19;4919362;28;20040;-75
2023/07/22 09:35:44;;;;;;;3.17;1.30;;;;;;;-144.73;66.85;54411.81;4918785;28;20035;-75
2023/07/22 09:38:10;;;;;;;9.98;1.73;;;;;;;-144.73;68.32;54407.69;5007141;28;20028;-75
2023/07/22 09:40:35;;;;;;;3.88;1.95;;;;;;;-144.73;69.66;54387.19;4923828;28;20078;-76
2023/07/22 09:43:02;;;;;;;3.40;1.55;;;;;;;-144.73;71.78;54383.06;4918980;28;20043;-74
2023/07/22 09:45:30;;;;;;;5.38;1.70;;;;;;;-144.73;67.51;54387.19;4918977;28;20036;-74
2023/07/22 09:47:56;;;;;;;4.45;1.52;;;;;;;-144.73;67.75;54350.22;4928354;28;20040;-74
2023/07/22 09:50:23;;;;;;;6.25;1.50;;;;;;;-144.73;58.66;54362.53;4922425;28;20044;-75
2023/07/22 09:52:54;;;;;;;5.65;1.77;;;;;;;-144.73;58.61;54360.50;4959371;28;20039;-75
2023/07/22 09:55:24;;;;;;;4.03;1.63;;;;;;;-144.73;58.30;54354.34;4924771;28;20032;-75
2023/07/22 09:57:54;;;;;;;7.65;1.65;;;;;;;-144.73;57.95;54342.03;4923211;28;20032;-75
2023/07/22 10:00:20;;;;;;;4.20;1.40;;;;;;;-144.73;57.23;54385.13;4926431;28;20032;-75
2023/07/22 10:02:49;;;;;;;4.72;1.70;;;;;;;-144.73;61.03;54329.72;4925465;28;20044;-74
2023/07/22 10:05:17;;;;;;;4.45;1.30;;;;;;;-144.73;59.83;54346.13;4934256;28;20047;-73
2023/07/22 10:07:45;;;;;;;5.25;1.67;;;;;;;-144.73;56.02;54337.91;4931203;28;20123;-73
2023/07/22 10:10:13;;;;;;;5.18;1.75;;;;;;;-144.73;59.15;54362.53;4931394;28;20085;-76
2023/07/22 10:12:40;;;;;;;4.47;1.38;;;;;;;-144.73;61.81;54370.75;4946400;28;20061;-76
2023/07/22 10:15:07;;;;;;;8.35;2.72;;;;;;;-144.73;67.23;54407.69;4933608;28;20086;-75
2023/07/22 10:17:33;;;;;;;8.00;2.17;;;;;;;-144.73;65.54;54366.66;4923760;28;20043;-76
2023/07/22 10:19:59;;;;;;;3.88;1.83;;;;;;;-144.73;64.24;54395.38;4925586;28;20032;-76
2023/07/22 10:22:26;;;;;;;4.95;1.77;;;;;;;-144.73;62.71;54362.53;4925046;28;20039;-75
2023/07/22 10:24:52;;;;;;;5.72;1.80;;;;;;;-144.73;60.91;54395.38;4928499;28;20039;-74
2023/07/22 10:27:18;;;;;;;7.13;1.83;;;;;;;-144.73;59.24;54333.81;4921501;28;20028;-75
2023/07/22 10:29:45;;;;;;;2.97;1.48;;;;;;;-144.73;59.28;54346.13;4930432;28;20029;-75
2023/07/22 10:32:11;;;;;;;3.88;1.98;;;;;;;-144.73;53.10;54368.69;4928077;28;20064;-75
2023/07/22 10:34:36;;;;;;;6.57;2.00;;;;;;;-144.73;54.92;54366.66;4931148;28;20110;-76
2023/07/22 10:37:04;;;;;;;15.55;2.25;;;;;;;-144.73;55.22;54346.13;4926005;28;20032;-75
2023/07/22 10:39:29;;;;;;;4.18;1.80;;;;;;;-144.73;53.82;54378.97;4926783;28;20059;-75
2023/07/22 10:42:05;;;;;;;3.83;1.50;;;;;;;-144.73;54.51;54292.75;4927599;28;20044;-75
2023/07/22 10:44:32;;;;;;;4.03;1.73;;;;;;;-144.73;53.29;54346.13;4925149;28;20066;-75
2023/07/22 10:46:59;;;;;;;4.28;1.77;;;;;;;-144.73;53.90;54325.59;4930233;28;20039;-75
2023/07/22 10:49:41;;;;;;;3.92;2.33;;;;;;;-144.73;52.49;54362.53;4928837;28;20036;-75
2023/07/22 10:52:07;;;;;;;15.90;2.10;;;;;;;-144.73;50.74;54300.97;4918489;28;20399;-75
2023/07/22 10:54:36;;;;;;;5.50;2.45;;;;;;;-144.73;51.36;54335.88;4929634;28;20033;-74
2023/07/22 10:57:25;;;;;;;7.07;2.10;;;;;;;-144.73;51.79;54346.13;4929706;28;20050;-74
2023/07/22 10:59:51;;;;;;;6.65;2.17;;;;;;;-144.73;51.84;54358.44;4928783;28;20051;-75